createdAt,value
2022-12-11T00:01:10.786Z,80.26
2022-12-11T00:03:42.393Z,80.76
2022-12-11T00:06:11.746Z,80.95
2022-12-11T00:08:39.853Z,80.86
2022-12-11T00:11:08.965Z,81.32
2022-12-11T00:13:37.106Z,81.44
2022-12-11T00:16:04.900Z,81.32
2022-12-11T00:18:34.291Z,81.44
2022-12-11T00:21:01.912Z,81.34
2022-12-11T00:23:29.821Z,80.80
2022-12-11T00:25:59.890Z,80.80
2022-12-11T00:28:27.604Z,80.54
2022-12-11T00:30:55.175Z,80.94
2022-12-11T00:33:23.195Z,81.39
2022-12-11T00:35:52.196Z,81.36
2022-12-11T00:38:21.763Z,81.05
2022-12-11T00:40:49.333Z,80.70
2022-12-11T00:43:17.750Z,81.38
2022-12-11T00:45:47.449Z,81.14
2022-12-11T00:48:15.437Z,81.69
2022-12-11T00:50:43.210Z,81.34
2022-12-11T00:53:12.531Z,82.09
2022-12-11T00:55:41.867Z,82.30
2022-12-11T00:58:11.330Z,82.44
2022-12-11T01:00:39.565Z,82.43
2022-12-11T01:03:07.524Z,82.31
2022-12-11T01:05:35.164Z,81.60
2022-12-11T01:08:03.605Z,81.19
2022-12-11T01:10:32.716Z,80.97
2022-12-11T01:13:03.259Z,80.86
2022-12-11T01:15:32.762Z,80.29
2022-12-11T01:18:00.419Z,80.19
2022-12-11T01:20:30.282Z,80.40
2022-12-11T01:23:00.546Z,80.80
2022-12-11T01:25:28.429Z,80.74
2022-12-11T01:27:57.398Z,80.54
2022-12-11T01:30:28.271Z,80.55
2022-12-11T01:32:56.031Z,80.35
2022-12-11T01:35:23.620Z,79.71
2022-12-11T01:37:51.410Z,79.91
2022-12-11T01:40:20.366Z,79.33
2022-12-11T01:42:48.350Z,79.33
2022-12-11T01:45:29.776Z,79.37
2022-12-11T01:48:01.974Z,78.38
2022-12-11T01:50:31.413Z,78.46
2022-12-11T01:53:04.216Z,79.75
2022-12-11T01:55:32.797Z,79.67
2022-12-11T01:58:02.376Z,79.49
2022-12-11T02:00:31.263Z,79.13
2022-12-11T02:02:59.097Z,79.56
2022-12-11T02:05:26.419Z,80.13
2022-12-11T02:07:57.643Z,79.62
2022-12-11T02:10:32.992Z,80.25
2022-12-11T02:13:07.713Z,79.93
2022-12-11T02:15:42.815Z,80.06
2022-12-11T02:18:19.179Z,79.72
2022-12-11T02:20:54.779Z,79.79
2022-12-11T02:23:55.443Z,79.96
2022-12-11T02:26:52.004Z,80.29
2022-12-11T02:29:26.217Z,80.06
2022-12-11T02:32:00.015Z,80.53
2022-12-11T02:34:32.523Z,80.56
2022-12-11T02:37:04.504Z,80.44
2022-12-11T02:39:36.014Z,81.01
2022-12-11T02:42:05.139Z,80.59
2022-12-11T02:44:36.090Z,80.62
2022-12-11T02:47:07.116Z,81.23
2022-12-11T02:49:35.897Z,80.92
2022-12-11T02:52:05.398Z,81.23
2022-12-11T02:54:37.311Z,81.61
2022-12-11T02:57:09.647Z,81.36
2022-12-11T02:59:41.775Z,81.75
2022-12-11T03:02:09.892Z,82.20
2022-12-11T03:04:38.027Z,81.65
2022-12-11T03:07:10.407Z,81.78
2022-12-11T03:09:38.974Z,81.68
2022-12-11T03:12:07.957Z,81.64
2022-12-11T03:14:36.239Z,82.01
2022-12-11T03:17:12.332Z,82.43
2022-12-11T03:19:44.951Z,82.54
2022-12-11T03:22:17.574Z,82.33
2022-12-11T03:24:47.205Z,81.93
2022-12-11T03:27:22.601Z,81.71
2022-12-11T03:29:57.333Z,81.54
2022-12-11T03:32:31.333Z,81.71
2022-12-11T03:35:03.970Z,81.44
2022-12-11T03:37:38.105Z,81.33
2022-12-11T03:40:10.841Z,80.71
2022-12-11T03:42:40.459Z,81.09
2022-12-11T03:45:09.599Z,81.40
2022-12-11T03:47:41.775Z,80.95
2022-12-11T03:50:12.534Z,80.33
2022-12-11T03:52:45.729Z,80.09
2022-12-11T03:55:17.111Z,80.28
2022-12-11T03:57:44.601Z,79.50
2022-12-11T04:00:15.396Z,80.76
2022-12-11T04:02:45.248Z,80.66
2022-12-11T04:05:13.733Z,80.43
2022-12-11T04:07:41.293Z,80.38
2022-12-11T04:10:10.379Z,80.70
2022-12-11T04:12:37.715Z,80.30
2022-12-11T04:15:06.281Z,80.03
2022-12-11T04:17:36.602Z,80.20
2022-12-11T04:20:07.168Z,80.28
2022-12-11T04:22:34.374Z,80.26
2022-12-11T04:25:03.034Z,79.87
2022-12-11T04:27:30.457Z,79.83
2022-12-11T04:29:58.131Z,80.11
2022-12-11T04:32:25.468Z,80.40
2022-12-11T04:34:53.116Z,80.13
2022-12-11T04:37:21.917Z,79.55
2022-12-11T04:39:49.817Z,79.74
2022-12-11T04:42:17.528Z,79.28
2022-12-11T04:44:45.499Z,79.08
2022-12-11T04:47:12.776Z,79.95
2022-12-11T04:49:40.395Z,79.50
2022-12-11T04:52:07.693Z,79.47
2022-12-11T04:54:36.846Z,79.40
2022-12-11T04:57:04.400Z,79.69
2022-12-11T04:59:32.251Z,79.48
2022-12-11T05:01:59.698Z,79.83
2022-12-11T05:04:31.405Z,80.21
2022-12-11T05:06:59.251Z,80.30
2022-12-11T05:09:27.674Z,80.22
2022-12-11T05:11:56.678Z,80.12
2022-12-11T05:14:24.445Z,79.79
2022-12-11T05:16:51.903Z,80.55
2022-12-11T05:19:19.715Z,79.52
2022-12-11T05:21:47.326Z,80.18
2022-12-11T05:24:15.161Z,79.68
2022-12-11T05:26:42.680Z,79.95
2022-12-11T05:29:11.785Z,79.66
2022-12-11T05:31:39.208Z,79.40
2022-12-11T05:34:06.997Z,79.11
2022-12-11T05:36:34.986Z,78.75
2022-12-11T05:39:04.762Z,78.90
2022-12-11T05:41:32.835Z,79.48
2022-12-11T05:44:00.880Z,79.54
2022-12-11T05:46:31.346Z,79.35
2022-12-11T05:49:00.935Z,79.96
2022-12-11T05:51:29.612Z,79.82
2022-12-11T05:53:58.232Z,80.43
2022-12-11T05:56:27.239Z,80.56
2022-12-11T05:58:56.493Z,80.05
2022-12-11T06:01:26.297Z,80.39
2022-12-11T06:03:56.826Z,79.96
2022-12-11T06:06:24.874Z,79.93
2022-12-11T06:08:53.017Z,79.56
2022-12-11T06:11:23.927Z,79.47
2022-12-11T06:13:52.818Z,79.54
2022-12-11T06:16:21.277Z,79.64
2022-12-11T06:18:49.215Z,79.63
2022-12-11T06:21:20.345Z,79.32
2022-12-11T06:23:50.060Z,79.52
2022-12-11T06:26:18.366Z,79.11
2022-12-11T06:28:47.061Z,79.30
2022-12-11T06:31:15.581Z,78.58
2022-12-11T06:33:43.964Z,78.35
2022-12-11T06:36:13.252Z,79.12
2022-12-11T06:38:42.689Z,78.68
2022-12-11T06:41:10.455Z,78.66
2022-12-11T06:43:39.871Z,79.53
2022-12-11T06:46:09.054Z,79.50
2022-12-11T06:48:37.166Z,79.37
2022-12-11T06:51:08.868Z,79.74
2022-12-11T06:53:36.940Z,79.59
2022-12-11T06:56:07.486Z,79.53
2022-12-11T06:58:36.244Z,79.29
2022-12-11T07:01:05.002Z,78.83
2022-12-11T07:03:32.843Z,78.55
2022-12-11T07:06:01.488Z,79.35
2022-12-11T07:08:29.641Z,79.98
2022-12-11T07:11:03.454Z,79.43
2022-12-11T07:13:32.622Z,79.34
2022-12-11T07:16:00.172Z,79.06
2022-12-11T07:18:28.089Z,78.92
2022-12-11T07:20:57.680Z,78.48
2022-12-11T07:23:25.731Z,78.72
2022-12-11T07:25:53.254Z,79.23
2022-12-11T07:28:20.998Z,78.73
2022-12-11T07:30:49.950Z,78.63
2022-12-11T07:33:17.740Z,79.04
2022-12-11T07:35:45.050Z,78.92
2022-12-11T07:38:12.828Z,79.11
2022-12-11T07:40:40.221Z,78.77
2022-12-11T07:43:08.044Z,78.41
2022-12-11T07:45:35.405Z,78.13
2022-12-11T07:48:04.994Z,78.98
2022-12-11T07:50:36.602Z,78.84
2022-12-11T07:53:07.415Z,78.13
2022-12-11T07:55:34.698Z,78.06
2022-12-11T07:58:02.616Z,78.14
2022-12-11T08:00:29.950Z,78.56
2022-12-11T08:02:57.711Z,78.41
2022-12-11T08:05:26.432Z,78.07
2022-12-11T08:07:54.205Z,77.87
2022-12-11T08:10:21.694Z,77.84
2022-12-11T08:12:49.416Z,77.90
2022-12-11T08:15:16.972Z,78.05
2022-12-11T08:17:44.648Z,77.32
2022-12-11T08:20:14.639Z,77.33
2022-12-11T08:22:43.892Z,78.33
2022-12-11T08:25:11.691Z,78.32
2022-12-11T08:27:39.623Z,78.17
2022-12-11T08:30:08.164Z,78.39
2022-12-11T08:32:35.864Z,78.12
2022-12-11T08:35:03.846Z,78.59
2022-12-11T08:37:32.091Z,78.67
2022-12-11T08:40:01.042Z,78.69
2022-12-11T08:42:28.710Z,78.67
2022-12-11T08:44:56.375Z,77.97
2022-12-11T08:47:24.195Z,78.06
2022-12-11T08:49:51.619Z,77.88
2022-12-11T08:52:19.647Z,78.26
2022-12-11T08:54:47.045Z,78.54
2022-12-11T08:57:16.283Z,77.92
2022-12-11T08:59:43.678Z,78.15
2022-12-11T09:02:12.269Z,77.46
2022-12-11T09:04:40.075Z,77.69
2022-12-11T09:07:07.832Z,78.16
2022-12-11T09:09:35.224Z,78.03
2022-12-11T09:12:03.051Z,77.91
2022-12-11T09:14:31.892Z,77.85
2022-12-11T09:16:59.649Z,77.65
2022-12-11T09:19:32.011Z,76.63
2022-12-11T09:22:00.101Z,76.75
2022-12-11T09:24:27.520Z,76.63
2022-12-11T09:26:55.549Z,76.63
2022-12-11T09:29:22.851Z,76.89
2022-12-11T09:31:51.989Z,76.83
2022-12-11T09:34:19.459Z,77.13
2022-12-11T09:36:47.148Z,76.72
2022-12-11T09:39:15.524Z,75.66
2022-12-11T09:41:53.135Z,76.57
2022-12-11T09:44:31.109Z,76.08
2022-12-11T09:47:00.864Z,76.19
2022-12-11T09:49:35.069Z,76.16
2022-12-11T09:52:10.577Z,75.63
2022-12-11T09:54:43.049Z,75.63
2022-12-11T09:57:20.348Z,75.65
2022-12-11T10:00:05.116Z,75.07
2022-12-11T10:02:40.640Z,75.84
2022-12-11T10:05:18.066Z,76.00
2022-12-11T10:07:51.899Z,75.86
2022-12-11T10:10:26.125Z,76.04
2022-12-11T10:13:04.161Z,76.22
2022-12-11T10:15:39.748Z,75.80
2022-12-11T10:18:16.188Z,76.37
2022-12-11T10:20:44.026Z,76.82
2022-12-11T10:23:19.517Z,77.36
2022-12-11T10:25:51.712Z,77.60
2022-12-11T10:28:20.867Z,77.42
2022-12-11T10:30:53.252Z,78.44
2022-12-11T10:33:26.954Z,78.44
2022-12-11T10:35:56.556Z,77.75
2022-12-11T10:38:28.463Z,77.69
2022-12-11T10:40:59.439Z,78.29
2022-12-11T10:43:35.234Z,78.39
2022-12-11T10:46:03.447Z,77.91
2022-12-11T10:48:33.309Z,77.09
2022-12-11T10:51:03.429Z,77.93
2022-12-11T10:53:33.573Z,77.75
2022-12-11T10:56:03.079Z,77.08
2022-12-11T10:58:32.671Z,76.80
2022-12-11T11:01:09.106Z,76.72
2022-12-11T11:03:52.131Z,76.19
2022-12-11T11:06:21.265Z,76.42
2022-12-11T11:08:50.855Z,76.39
2022-12-11T11:11:26.932Z,75.48
2022-12-11T11:14:22.841Z,75.30
2022-12-11T11:16:52.776Z,75.50
2022-12-11T11:19:24.899Z,76.29
2022-12-11T11:21:54.262Z,75.85
2022-12-11T11:24:28.007Z,75.43
2022-12-11T11:27:12.703Z,75.41
2022-12-11T11:29:42.105Z,75.00
2022-12-11T11:32:19.365Z,75.83
2022-12-11T11:34:48.745Z,75.92
2022-12-11T11:37:32.516Z,74.64
2022-12-11T11:40:08.124Z,74.84
2022-12-11T11:42:45.411Z,75.17
2022-12-11T11:45:17.701Z,75.40
2022-12-11T11:47:55.774Z,75.56
2022-12-11T11:50:30.083Z,74.99
2022-12-11T11:53:02.854Z,75.18
2022-12-11T11:55:40.063Z,73.74
2022-12-11T11:58:12.691Z,74.20
2022-12-11T12:00:40.521Z,72.61
2022-12-11T12:03:12.779Z,73.69
2022-12-11T12:05:51.327Z,73.09
2022-12-11T12:08:32.091Z,73.00
2022-12-11T12:11:07.414Z,70.94
2022-12-11T12:13:49.456Z,72.61
2022-12-11T12:16:52.082Z,72.43
2022-12-11T12:19:31.983Z,71.76
2022-12-11T12:22:12.282Z,72.25
2022-12-11T12:24:48.903Z,71.63
2022-12-11T12:27:50.919Z,72.15
2022-12-11T12:30:16.138Z,73.21
2022-12-11T12:32:59.482Z,72.38
2022-12-11T12:35:35.268Z,72.42
2022-12-11T12:38:18.729Z,72.62
2022-12-11T12:41:00.186Z,72.20
2022-12-11T12:43:52.878Z,72.73
2022-12-11T12:46:29.163Z,73.02
2022-12-11T12:49:00.256Z,73.25
2022-12-11T12:51:29.199Z,74.34
2022-12-11T12:54:00.554Z,73.69
2022-12-11T12:56:31.963Z,73.09
2022-12-11T12:58:59.816Z,73.42
2022-12-11T13:01:30.530Z,73.42
2022-12-11T13:04:00.951Z,74.23
2022-12-11T13:06:31.382Z,74.59
2022-12-11T13:09:13.931Z,74.52
2022-12-11T13:11:41.266Z,75.40
2022-12-11T13:14:24.979Z,75.43
2022-12-11T13:16:53.608Z,76.66
2022-12-11T13:19:28.295Z,75.95
2022-12-11T13:21:57.688Z,76.33
2022-12-11T13:24:28.935Z,75.97
2022-12-11T13:26:56.878Z,74.96
2022-12-11T13:29:33.998Z,73.94
2022-12-11T13:32:03.450Z,75.22
2022-12-11T13:34:33.595Z,73.77
2022-12-11T13:37:02.649Z,73.65
2022-12-11T13:39:35.037Z,74.58
2022-12-11T13:42:06.934Z,74.35
2022-12-11T13:44:39.274Z,73.80
2022-12-11T13:47:12.725Z,73.78
2022-12-11T13:49:43.876Z,74.49
2022-12-11T13:52:18.965Z,73.85
2022-12-11T13:54:52.393Z,74.22
2022-12-11T13:57:20.574Z,74.71
2022-12-11T13:59:50.295Z,75.99
2022-12-11T14:02:21.558Z,76.00
2022-12-11T14:04:52.766Z,75.29
2022-12-11T14:07:25.402Z,75.51
2022-12-11T14:10:00.956Z,75.98
2022-12-11T14:12:29.917Z,75.77
2022-12-11T14:15:03.049Z,75.62
2022-12-11T14:17:33.154Z,75.12
2022-12-11T14:20:04.478Z,75.45
2022-12-11T14:22:32.340Z,75.64
2022-12-11T14:25:03.113Z,75.51
2022-12-11T14:27:31.075Z,75.44
2022-12-11T14:30:09.800Z,74.22
2022-12-11T14:32:43.189Z,74.12
2022-12-11T14:35:21.469Z,74.26
2022-12-11T14:37:49.359Z,73.69
2022-12-11T14:40:22.886Z,73.97
2022-12-11T14:42:59.974Z,74.75
2022-12-11T14:45:34.039Z,74.72
2022-12-11T14:48:04.398Z,74.43
2022-12-11T14:50:39.493Z,74.35
2022-12-11T14:53:11.143Z,74.51
2022-12-11T14:55:41.976Z,74.38
2022-12-11T14:58:17.899Z,74.08
2022-12-11T15:00:57.463Z,73.54
2022-12-11T15:03:25.231Z,74.02
2022-12-11T15:05:54.733Z,74.54
2022-12-11T15:08:27.691Z,73.33
2022-12-11T15:11:04.658Z,73.91
2022-12-11T15:13:33.131Z,74.06
2022-12-11T15:16:02.104Z,74.64
2022-12-11T15:18:32.691Z,74.64
2022-12-11T15:21:05.259Z,74.42
2022-12-11T15:23:37.306Z,74.75
2022-12-11T15:26:06.643Z,74.18
2022-12-11T15:28:36.718Z,74.74
2022-12-11T15:31:06.937Z,73.77
2022-12-11T15:33:46.442Z,74.64
2022-12-11T15:36:25.566Z,74.39
2022-12-11T15:38:53.411Z,75.08
2022-12-11T15:41:25.071Z,74.93
2022-12-11T15:43:58.534Z,74.68
2022-12-11T15:46:27.901Z,75.30
2022-12-11T15:48:57.024Z,74.69
2022-12-11T15:51:24.957Z,75.26
2022-12-11T15:53:54.363Z,74.24
2022-12-11T15:56:25.099Z,73.93
2022-12-11T15:58:52.812Z,74.37
2022-12-11T16:01:21.392Z,74.76
2022-12-11T16:03:48.865Z,75.24
2022-12-11T16:06:16.929Z,75.76
2022-12-11T16:08:45.049Z,75.60
2022-12-11T16:11:13.895Z,75.85
2022-12-11T16:13:42.715Z,75.87
2022-12-11T16:16:11.321Z,75.20
2022-12-11T16:18:38.772Z,75.63
2022-12-11T16:21:07.081Z,75.19
2022-12-11T16:23:34.445Z,75.97
2022-12-11T16:26:06.857Z,74.37
2022-12-11T16:28:34.389Z,74.49
2022-12-11T16:31:03.757Z,73.77
2022-12-11T16:33:31.234Z,74.25
2022-12-11T16:35:58.955Z,73.66
2022-12-11T16:38:26.526Z,73.55
2022-12-11T16:41:00.401Z,74.09
2022-12-11T16:43:27.888Z,73.85
2022-12-11T16:45:55.708Z,73.48
2022-12-11T16:48:24.958Z,73.76
2022-12-11T16:50:53.472Z,73.74
2022-12-11T16:53:21.099Z,73.05
2022-12-11T16:55:49.069Z,73.85
2022-12-11T16:58:16.507Z,73.73
2022-12-11T17:00:44.266Z,74.72
2022-12-11T17:03:11.682Z,75.14
2022-12-11T17:05:41.703Z,75.17
2022-12-11T17:08:09.705Z,76.28
2022-12-11T17:10:40.468Z,75.88
2022-12-11T17:13:07.832Z,75.98
2022-12-11T17:15:40.094Z,75.63
2022-12-11T17:18:07.692Z,76.16
2022-12-11T17:20:39.498Z,76.53
2022-12-11T17:23:08.849Z,76.30
2022-12-11T17:25:40.369Z,77.04
2022-12-11T17:28:07.866Z,77.49
2022-12-11T17:30:39.191Z,77.63
2022-12-11T17:33:06.763Z,77.72
2022-12-11T17:35:34.609Z,77.63
2022-12-11T17:38:02.122Z,76.54
2022-12-11T17:40:31.293Z,77.52
2022-12-11T17:42:59.127Z,77.36
2022-12-11T17:45:26.906Z,76.62
2022-12-11T17:47:54.528Z,76.43
2022-12-11T17:50:23.000Z,77.16
2022-12-11T17:52:50.545Z,77.49
2022-12-11T17:55:18.542Z,77.46
2022-12-11T17:57:50.239Z,78.22
2022-12-11T18:00:18.958Z,77.73
2022-12-11T18:02:46.386Z,77.90
2022-12-11T18:05:15.835Z,77.78
2022-12-11T18:07:43.305Z,78.18
2022-12-11T18:10:11.702Z,78.08
2022-12-11T18:12:39.271Z,77.79
2022-12-11T18:15:09.772Z,78.54
2022-12-11T18:17:37.423Z,78.15
2022-12-11T18:20:05.741Z,77.80
2022-12-11T18:22:33.197Z,78.51
2022-12-11T18:25:03.952Z,78.76
2022-12-11T18:27:36.836Z,78.22
2022-12-11T18:30:05.355Z,79.38
2022-12-11T18:32:34.446Z,78.61
2022-12-11T18:35:02.321Z,78.76
2022-12-11T18:37:30.255Z,79.10
2022-12-11T18:39:58.582Z,78.50
2022-12-11T18:42:33.840Z,78.74
2022-12-11T18:45:02.012Z,79.29
2022-12-11T18:47:29.336Z,80.24
2022-12-11T18:50:03.951Z,79.92
2022-12-11T18:52:34.709Z,79.94
2022-12-11T18:55:02.559Z,79.42
2022-12-11T18:57:29.908Z,80.44
2022-12-11T18:59:57.631Z,79.78
2022-12-11T19:02:25.089Z,80.07
2022-12-11T19:04:53.013Z,80.03
2022-12-11T19:07:21.845Z,79.85
2022-12-11T19:09:49.722Z,79.99
2022-12-11T19:12:18.747Z,80.21
2022-12-11T19:14:46.538Z,80.20
2022-12-11T19:17:14.055Z,79.85
2022-12-11T19:19:42.133Z,80.19
2022-12-11T19:22:10.413Z,80.71
2022-12-11T19:24:40.943Z,80.46
2022-12-11T19:27:13.188Z,79.95
2022-12-11T19:29:41.621Z,80.25
2022-12-11T19:32:09.218Z,80.45
2022-12-11T19:34:37.033Z,80.96
2022-12-11T19:37:04.699Z,79.92
2022-12-11T19:39:32.529Z,79.65
2022-12-11T19:42:01.388Z,80.82
2022-12-11T19:44:29.115Z,80.38
2022-12-11T19:46:56.633Z,80.95
2022-12-11T19:49:24.579Z,81.14
2022-12-11T19:51:52.029Z,80.36
2022-12-11T19:54:19.871Z,80.64
2022-12-11T19:56:47.483Z,81.23
2022-12-11T19:59:17.580Z,80.62
2022-12-11T20:01:46.676Z,81.34
2022-12-11T20:04:16.667Z,81.12
2022-12-11T20:06:45.781Z,81.41
2022-12-11T20:09:14.607Z,81.05
2022-12-11T20:11:43.891Z,81.32
2022-12-11T20:14:19.303Z,80.78
2022-12-11T20:17:09.772Z,81.60
2022-12-11T20:19:35.182Z,81.75
2022-12-11T20:22:02.725Z,81.58
2022-12-11T20:24:30.425Z,81.46
2022-12-11T20:26:57.747Z,81.75
2022-12-11T20:29:27.170Z,81.74
2022-12-11T20:31:54.623Z,81.35
2022-12-11T20:34:22.530Z,81.50
2022-12-11T20:36:52.007Z,82.38
2022-12-11T20:39:19.823Z,82.63
2022-12-11T20:41:47.448Z,82.74
2022-12-11T20:44:15.558Z,81.92
2022-12-11T20:46:44.466Z,81.67
2022-12-11T20:49:12.097Z,81.74
2022-12-11T20:51:39.693Z,81.41
2022-12-11T20:54:07.664Z,81.93
2022-12-11T20:56:35.020Z,81.77
2022-12-11T20:59:02.939Z,82.24
2022-12-11T21:01:32.201Z,82.79
2022-12-11T21:04:01.697Z,82.20
2022-12-11T21:06:31.960Z,81.29
2022-12-11T21:09:04.958Z,82.59
2022-12-11T21:11:32.334Z,82.24
2022-12-11T21:14:00.199Z,82.24
2022-12-11T21:16:28.600Z,82.42
2022-12-11T21:18:56.974Z,81.71
2022-12-11T21:21:26.143Z,82.11
2022-12-11T21:23:53.868Z,82.10
2022-12-11T21:26:21.308Z,82.09
2022-12-11T21:28:49.141Z,82.43
2022-12-11T21:31:18.262Z,81.87
2022-12-11T21:33:47.161Z,81.82
2022-12-11T21:36:15.226Z,82.38
2022-12-11T21:38:45.144Z,82.30
2022-12-11T21:41:14.661Z,82.94
2022-12-11T21:44:14.627Z,81.93
2022-12-11T21:46:30.575Z,82.77
2022-12-11T21:48:58.570Z,82.23
2022-12-11T21:51:34.095Z,82.94
2022-12-11T21:54:05.881Z,82.63
2022-12-11T21:56:33.469Z,82.76
2022-12-11T21:59:01.140Z,82.43
2022-12-11T22:01:30.754Z,82.96
2022-12-11T22:03:59.262Z,83.18
2022-12-11T22:06:27.047Z,82.70
2022-12-11T22:08:54.904Z,82.60
2022-12-11T22:11:27.076Z,82.01
2022-12-11T22:13:54.943Z,82.28
2022-12-11T22:16:23.025Z,82.69
2022-12-11T22:18:50.848Z,82.07
2022-12-11T22:21:18.592Z,83.36
2022-12-11T22:23:46.542Z,83.50
2022-12-11T22:26:16.882Z,83.03
2022-12-11T22:28:46.085Z,82.79
2022-12-11T22:31:15.192Z,82.94
2022-12-11T22:33:43.306Z,83.07
2022-12-11T22:36:11.586Z,83.34
2022-12-11T22:38:39.674Z,82.52
2022-12-11T22:41:10.523Z,83.11
2022-12-11T22:43:38.286Z,82.99
2022-12-11T22:46:07.156Z,83.03
2022-12-11T22:48:37.294Z,83.25
2022-12-11T22:51:05.654Z,82.88
2022-12-11T22:53:33.363Z,83.16
2022-12-11T22:56:04.429Z,83.87
2022-12-11T22:58:32.724Z,83.61
2022-12-11T23:01:00.252Z,82.89
2022-12-11T23:03:29.844Z,83.22
2022-12-11T23:06:00.749Z,83.76
2022-12-11T23:08:31.290Z,82.95
2022-12-11T23:10:58.763Z,83.82
2022-12-11T23:13:26.457Z,84.01
2022-12-11T23:15:53.757Z,83.72
2022-12-11T23:18:21.518Z,83.42
2022-12-11T23:20:50.760Z,83.83
2022-12-11T23:23:18.491Z,82.95
2022-12-11T23:25:45.911Z,82.93
2022-12-11T23:28:13.716Z,82.86
2022-12-11T23:30:44.096Z,82.43
2022-12-11T23:33:11.852Z,82.14
2022-12-11T23:35:39.172Z,82.85
2022-12-11T23:38:08.398Z,82.54
2022-12-11T23:40:36.371Z,82.29
2022-12-11T23:43:04.099Z,81.84
2022-12-11T23:45:31.263Z,81.00
2022-12-11T23:47:59.008Z,81.83
2022-12-11T23:50:26.448Z,82.57
2022-12-11T23:52:54.447Z,82.15
2022-12-11T23:55:23.483Z,82.23
2022-12-11T23:57:51.117Z,81.87
